Aérodrome :
LOGIN :

S'inscrire | Disclaimer

   EN    FR    IT 

 










Légende :    VFR   VFR Marginal   IFR   IFR Intensif   IFR Très Intensif
Visi : 
Plafond : 
>= 8 km
>= 3000ft
5 à 8 km
1000 à 3000 ft
1500m à 5 km
500 à 1000 ft
800 à 1500m
200 à 500 ft
< 800m
< 200 ft
Symboles :   Orages  Brouillard  Fortes neiges  Fortes précipitations  Vent > 20 kt
SIGMETs :   Divers  Orages  Givrage  Turbulence  Onde Orograph.  Cendres Volcan.






- Altitude de l'aérodrome : 586 ft
- Code IATA : IEV


UKKK - Zhuliany

DERNIER METAR :
  • 121630Z 35005MPS 300V010 9999 FEW021CB 20/15 Q1014 R26/290156 TEMPO VRB12G19MPS 2100 -TSRAGR SQ BKN020CB

METARs EXPIRÉS :
  • 121600Z 33006MPS 9999 FEW027CB 20/16 Q1014 R26/290156 TEMPO VRB12G19MPS 2100 -TSRAGR SQ BKN020CB
  • 121530Z 35007MPS 9999 FEW029CB 21/16 Q1014 R26/290156 TEMPO VRB12G19MPS 2100 -TSRAGR SQ BKN020CB
  • 121500Z 34007G12MPS 9999 FEW056CB 22/17 Q1013 R26/290156 TEMPO VRB12G19MPS 2100 -TSRAGR SQ BKN020CB
  • 121430Z 34006MPS 310V030 9999 -SHRA SCT036CB 23/18 Q1013 R26/290156 TEMPO VRB12G19MPS 2100 -TSRAGR SQ BKN020CB
  • 121400Z 01006MPS 330V040 9999 SCT025CB 23/19 Q1013 R26/290156 TEMPO VRB12G19MPS 2100 -TSRAGR SQ BKN020CB

TAF TAF UKKK
Valide du 12 à 12h jusqu'au 13 à 12h UTC


121102Z 1212/1312 32005G11MPS 9999 BKN030 TX31/1212Z TN11/1302Z
TEMPO 1212/1221 VRB12G19MPS 1000 TSRAGR SQ BKN006 BKN020CB
BECMG 1221/1222 35005G10MPS
TEMPO 1222/1306 01008G14MPS 2100 -SHRA BKN005 SCT015CB



MET'MAP, la Météo Aéronautique d'un coup d'oeil ! - Copyright ORBIFLY Décembre 2007 - Disclaimer

ORBIFLY MET'MAP TEAM :

Programmation & Développement : Alexandra Zaïnal
Sur une idée originale de : Baudouin d'Aumeries
Assistance à la programmation : Marc-Olivier Méhu
Soutien technique & logistique : Manuel Goepfert

Contact : metmap@orbifly.com




SOURCES & CREDITS :

   NOAA